Rome, Italy
Current Conditions -  °F | °C
As of 3:45 AM on Wednesday 26 Nov 2014 (Local Time) from LIRA Reporting Station
Scattered Clouds Scattered Clouds  
Wind Chill: 54°   Ceiling: Unl
Heat Index: 54°   Visibility: 4mi
Dew Point: 52°   Wind: 0mph
Humidity: 94%   Direction: NA
Pressure: 30.03"   Gusts: NA
Location:  41.9°N, 12.48°E
Report Text: LIRA 260245Z 00000KT 6000 FEW010 SCT080 12/11 Q1017
Loading
Personal Weather Stations






























Interactive Weather Map New forecast layout! Learn more

10-Day Weather Forecast

Advertisements
Track Severe Weather on mobile